• Join FlightAware (Why Join?)
  • Login
  • US Flag 
06:49PM EDT


 

Airport Tracker/Info


-or-


 

Live Flight TrackerFlight Track Log ✈ N10JY ✈ 26-Jul-2013 ✈ KALB - KROC

Flight Track Log - Related Links

Times and Time Zones

All times are in EDT time to prevent confusion due to time zone crossing. See the N10JY flight status page for this flight to view local times or setup timezone preferences in your user account.

Time Position Orientation Groundspeed Altitude Reporting Facility
EDT Latitude Longitude Course Direction KTS MPH feet Rate Location/Type
07:44PM 42.7922 -73.8236 340° North 201 231 3,200  Level Boston Center
07:46PM 42.7825 -73.9367 263° West 239 275 7,500 3,060 Climbing Boston Center
07:46PM 42.7892 -74.0414 275° West 258 297 10,100 2,880 Climbing Boston Center
07:48PM 42.8061 -74.1692 280° West 319 367 13,300 2,880 Climbing Boston Center
07:49PM 42.8186 -74.3025 277° West 375 432 16,100 1,320 Climbing Boston Center
07:49PM 42.8367 -74.4675 279° West 404 465 16,000 -60 Descending Boston Center
07:50PM 42.8508 -74.6008 278° West 412 474 16,000  Level Boston Center
07:51PM 42.8664 -74.7714 277° West 407 468 16,000  Level Boston Center
07:53PM 42.8800 -74.9081 278° West 413 475 16,000  Level Boston Center
07:54PM 42.8933 -75.0617 277° West 408 470 16,000  Level Boston Center
07:54PM 42.9086 -75.2097 278° West 408 470 16,000  Level Boston Center
07:56PM 42.9236 -75.3608 278° West 408 470 16,000  Level Boston Center
07:57PM 42.9397 -75.5403 277° West 408 470 16,000  Level Boston Center
07:58PM 42.9542 -75.6942 277° West 408 470 16,000  Level Boston Center
07:59PM 42.9706 -75.8428 279° West 408 470 16,000  Level Boston Center
08:00PM 42.9842 -76.0108 276° West 408 470 16,000  Level Boston Center
08:02PM 43.0086 -76.3097 276° West 394 453 16,000  Level Cleveland Center
08:03PM 43.0225 -76.4622 277° West 400 460 16,000 -60 Level Cleveland Center
08:04PM 43.0361 -76.6119 277° West 407 468 15,900 -600 Descending Cleveland Center
08:05PM 43.0469 -76.7478 276° West 407 468 14,900 -1,440 Descending Cleveland Center
08:06PM 43.0578 -76.8861 276° West 385 443 13,200 -2,280 Descending Cleveland Center
08:07PM 43.0367 -77.0183 258° West 322 371 10,700 -1,980 Descending Cleveland Center
08:08PM 43.0131 -77.1303 254° West 338 389 9,000 -1,680 Descending Cleveland Center
08:08PM 43.0011 -77.2161 259° West 261 300 7,500 -1,680 Descending Cleveland Center
08:09PM 42.9936 -77.3217 264° West 264 304 6,000 -780 Descending Cleveland Center
08:10PM 42.9839 -77.4214 262° West 255 293 6,000 -660 Level Cleveland Center
08:12PM 42.9886 -77.5150 274° West 253 291 4,600 -1,380 Descending Cleveland Center
08:12PM 42.9928 -77.5942 274° West 224 258 3,300 -1,140 Descending Cleveland Center
08:14PM 43.0011 -77.6819 277° West 215 247 2,500 -420 Descending Cleveland Center
08:15PM 43.0336 -77.7344 310° West 177 204 2,500 -540 Level Cleveland Center
08:16PM 43.0750 -77.7183 16° North 135 155 1,400 -1,140 Descending Cleveland Center